Corpus Christi International Airport Corpus Christi US
ICAO: KCRP
IATA: CRP
Category: Large
Scheduled Services: Yes

Elevation: 44 ft
TransAlt. 18000 ft.

Airport Communications:
APP/DEP:120.9
ATIS:126.8
CLNC DEL:118.55
GND:121.9
SAN ANGELO RDO:122.65
TWR:119.4
UNICOM:122.95

KCRP Zoom In..

If you have problems with the map follow the link
https://www.worldairports.se/pages/airport.php?
ICAO=KCRP

Runways:

(A) RW 13 length 7508 ft width 150 ft
ILS 110.30 / hdg 129

(B) RW 17 length 6080 ft width 150 ft
LOC 110.30 / hdg 172

(C) RW 31 length 7508 ft width 150 ft
LOC 110.30 / hdg 309

(D) RW 35 length 6080 ft width 150 ft
ILS 109.50 / hdg 352

Location; KCRP
Day. 14 / Time. 03.51 Zulu
* Altimeter: 29.87
* Temperature: 13° c. 55.4°f.
* Wind from: 200° Speed 06 kn.
Dewpoint: 08° c.
Visibility: 10 Statute Miles.
Clouds: Broken 25000 ft.

KCRP 140351Z 20006KT 10SM BKN250 13/08 A2987 RMK AO2 SLP116 T01330083


Wind From 200°
Speed 06 kn.

 
 
jpsmedia worldairports.se 2019   terms of use